Time;durP1;ratioP1;P1;durP2;ratioP2;P2;SDS_P1;SDS_P2;PMS_P1;PMS_P2;Temp;Humidity;BMP_temperature;BMP_pressure;BME280_temperature;BME280_humidity;BME280_pressure;Samples;Min_cycle;Max_cycle;Signal;HPM_P1;HPM_P2
2021/06/23 00:01:04;;;;;;;16.75;9.53;;;;;;;20.89;85.79;97865.65;1717112;83;20963;-79
2021/06/23 00:03:30;;;;;;;13.60;10.40;;;;;;;20.87;86.20;97863.83;1687775;85;21105;-79
2021/06/23 00:05:56;;;;;;;16.30;10.88;;;;;;;20.89;85.65;97857.97;1717228;83;21099;-79
2021/06/23 00:08:22;;;;;;;19.50;14.63;;;;;;;20.88;85.62;97854.98;1717208;83;20948;-79
2021/06/23 00:10:49;;;;;;;17.82;13.70;;;;;;;20.87;85.67;97861.66;1717118;83;20893;-79
2021/06/23 00:13:16;;;;;;;16.33;12.50;;;;;;;20.88;85.71;97868.76;1717344;83;20977;-80
2021/06/23 00:15:42;;;;;;;24.52;16.02;;;;;;;20.88;86.83;97875.64;1688232;84;21043;-79
2021/06/23 00:18:08;;;;;;;20.57;14.58;;;;;;;20.90;86.05;97872.75;1716950;83;21496;-79
2021/06/23 00:20:34;;;;;;;28.17;22.37;;;;;;;20.93;86.35;97875.37;1717367;83;21104;-79
2021/06/23 00:23:00;;;;;;;33.58;23.38;;;;;;;20.93;87.27;97874.80;1716978;83;21024;-80
2021/06/23 00:25:26;;;;;;;29.23;23.83;;;;;;;20.97;87.20;97880.42;1717038;83;20961;-80
2021/06/23 00:27:52;;;;;;;32.25;23.80;;;;;;;21.00;86.80;97892.10;1717377;83;20988;-79
2021/06/23 00:30:19;;;;;;;30.57;23.52;;;;;;;21.03;86.91;97884.53;1717049;83;21300;-79
2021/06/23 00:32:45;;;;;;;28.98;22.37;;;;;;;21.13;86.67;97889.53;1717083;83;20910;-80
2021/06/23 00:35:12;;;;;;;32.98;23.87;;;;;;;21.12;86.41;97887.35;1696453;83;21461;-79
2021/06/23 00:37:38;;;;;;;32.55;25.00;;;;;;;21.09;86.58;97894.92;1717050;83;21387;-79
2021/06/23 00:40:06;;;;;;;28.75;23.47;;;;;;;21.05;86.74;97897.37;1687465;83;20925;-79
2021/06/23 00:42:33;;;;;;;33.98;25.17;;;;;;;21.02;86.65;97898.05;1696517;83;22698;-79
2021/06/23 00:44:59;;;;;;;34.25;25.48;;;;;;;21.04;86.78;97902.66;1717124;83;21051;-80
2021/06/23 00:47:25;;;;;;;34.58;24.52;;;;;;;20.93;87.05;97909.22;1696552;83;20929;-79
2021/06/23 00:49:51;;;;;;;34.10;25.35;;;;;;;20.91;87.07;97904.64;1717090;83;20980;-79
2021/06/23 00:52:17;;;;;;;34.23;26.62;;;;;;;20.98;86.80;97907.61;1720348;83;20878;-79
2021/06/23 00:54:51;;;;;;;40.65;28.12;;;;;;;20.97;86.84;97903.83;1717171;83;21256;-79
2021/06/23 00:57:18;;;;;;;42.85;28.73;;;;;;;20.98;86.84;97908.19;1716888;83;21016;-79
2021/06/23 00:59:44;;;;;;;43.95;30.12;;;;;;;20.99;86.50;97906.45;1717076;83;20917;-79
2021/06/23 01:02:12;;;;;;;40.33;29.15;;;;;;;20.94;86.52;97912.23;1717139;83;20912;-79
2021/06/23 01:04:38;;;;;;;43.00;28.70;;;;;;;20.91;86.82;97920.37;1717482;83;20929;-79
2021/06/23 01:07:04;;;;;;;35.13;28.38;;;;;;;20.99;86.22;97916.67;1717110;83;21307;-79
2021/06/23 01:09:30;;;;;;;39.30;28.57;;;;;;;20.97;86.15;97914.84;1717074;83;21036;-78
2021/06/23 01:12:46;;;;;;;39.15;30.27;;;;;;;21.02;86.02;97911.83;1717172;83;20952;-79
2021/06/23 01:15:13;;;;;;;42.98;29.27;;;;;;;20.96;86.38;97925.64;1716922;83;21033;-79
2021/06/23 01:17:39;;;;;;;36.05;27.42;;;;;;;20.87;87.03;97924.41;1720600;83;21000;-79
2021/06/23 01:20:08;;;;;;;38.55;29.05;;;;;;;20.83;87.37;97930.38;1717035;83;21004;-79
2021/06/23 01:22:36;;;;;;;42.38;29.92;;;;;;;20.85;87.35;97932.23;1687398;84;21399;-79
2021/06/23 01:25:02;;;;;;;41.08;26.80;;;;;;;20.84;87.19;97934.15;1696619;83;20997;-79
2021/06/23 01:27:28;;;;;;;43.68;29.12;;;;;;;20.79;87.20;97934.41;1717042;83;21016;-79
2021/06/23 01:29:54;;;;;;;38.95;28.23;;;;;;;20.83;86.66;97940.02;1717263;83;20989;-79
2021/06/23 01:32:20;;;;;;;43.30;30.02;;;;;;;20.80;87.03;97943.47;1717037;83;21209;-79
2021/06/23 01:34:46;;;;;;;41.42;29.32;;;;;;;20.80;86.84;97937.97;1687473;84;20901;-79
2021/06/23 01:37:12;;;;;;;41.68;30.45;;;;;;;20.76;87.54;97939.80;1717060;83;20873;-79
2021/06/23 01:39:38;;;;;;;38.45;29.18;;;;;;;20.82;86.69;97948.84;1716876;83;20870;-79
2021/06/23 01:42:05;;;;;;;42.60;31.15;;;;;;;20.86;86.71;97949.55;1717111;83;20912;-79
2021/06/23 01:44:30;;;;;;;44.53;31.10;;;;;;;20.84;86.66;97952.63;1716993;83;21093;-79
2021/06/23 01:46:56;;;;;;;43.17;28.85;;;;;;;20.92;86.70;97948.93;1717374;83;20949;-79
2021/06/23 01:49:25;;;;;;;44.00;29.90;;;;;;;20.90;86.84;97948.48;1717085;83;20981;-79
2021/06/23 01:51:51;;;;;;;;;;;;;;;20.89;86.75;97951.59;1719660;83;21033;-79
2021/06/23 01:54:17;;;;;;;39.88;30.10;;;;;;;20.86;87.43;97955.05;1687721;84;20138;-79
2021/06/23 01:56:43;;;;;;;42.70;30.92;;;;;;;20.88;87.78;97954.12;1717142;83;22024;-79
2021/06/23 01:59:09;;;;;;;42.48;28.70;;;;;;;20.94;86.78;97958.25;1717076;83;20893;-79
2021/06/23 02:02:15;;;;;;;43.17;28.77;;;;;;;20.91;87.24;97957.55;1717870;83;20995;-79
2021/06/23 02:05:03;;;;;;;45.65;32.48;;;;;;;20.88;86.71;97961.01;1717433;83;20976;-79
2021/06/23 02:07:58;;;;;;;48.80;30.95;;;;;;;20.88;87.04;97963.77;1717364;83;21008;-79
2021/06/23 02:10:51;;;;;;;50.05;34.38;;;;;;;20.78;87.18;97967.80;1717223;83;21097;-79
2021/06/23 02:14:00;;;;;;;48.40;32.33;;;;;;;20.68;87.92;97960.83;1717335;83;20910;-79
2021/06/23 02:16:26;;;;;;;54.45;34.67;;;;;;;20.65;88.10;97965.64;1717314;83;21442;-79
2021/06/23 02:18:52;;;;;;;42.55;29.98;;;;;;;20.50;89.04;97969.09;1717369;83;20936;-79
2021/06/23 02:21:18;;;;;;;60.63;33.13;;;;;;;20.50;88.71;97969.09;1718014;83;20976;-79
2021/06/23 02:23:44;;;;;;;46.92;31.40;;;;;;;20.50;89.11;97964.97;1717035;83;21332;-79
2021/06/23 02:26:10;;;;;;;43.25;29.90;;;;;;;20.45;89.50;97969.34;1717399;83;21570;-78
2021/06/23 02:28:37;;;;;;;53.55;30.23;;;;;;;20.49;88.66;97968.87;1716988;83;20977;-79
2021/06/23 02:31:03;;;;;;;46.73;29.45;;;;;;;20.47;89.18;97973.92;1717355;83;21527;-79
2021/06/23 02:33:29;;;;;;;47.78;32.28;;;;;;;20.55;88.15;97967.49;1717056;83;21139;-79
2021/06/23 02:35:56;;;;;;;44.42;30.23;;;;;;;20.66;88.06;97973.31;1717300;83;21281;-79
2021/06/23 02:38:24;;;;;;;44.60;29.98;;;;;;;20.63;88.27;97968.52;1687422;84;20978;-79
2021/06/23 02:40:51;;;;;;;48.48;31.25;;;;;;;20.63;88.19;97969.31;1717060;83;21426;-79
2021/06/23 02:43:18;;;;;;;50.15;31.27;;;;;;;20.65;88.16;97974.47;1717041;83;21028;-79
2021/06/23 02:45:44;;;;;;;44.90;30.08;;;;;;;20.71;87.80;97974.47;1717197;83;21036;-80
2021/06/23 02:48:10;;;;;;;42.78;30.12;;;;;;;20.75;87.89;97982.25;1717116;83;21999;-79
2021/06/23 02:50:44;;;;;;;43.78;29.82;;;;;;;20.74;87.34;97982.02;1716986;83;21028;-79
2021/06/23 02:53:10;;;;;;;42.93;29.37;;;;;;;20.77;87.21;97977.22;1716913;81;20964;-79
2021/06/23 02:55:36;;;;;;;42.20;30.48;;;;;;;20.76;87.42;97983.84;1717279;83;21114;-79
2021/06/23 02:58:02;;;;;;;43.83;30.75;;;;;;;20.79;87.73;97980.42;1717119;83;20981;-79
2021/06/23 03:00:28;;;;;;;44.93;29.75;;;;;;;20.84;87.15;97980.16;1717433;83;21145;-79
2021/06/23 03:02:54;;;;;;;47.60;29.50;;;;;;;20.89;87.04;97984.64;1717096;83;20881;-79
2021/06/23 03:05:20;;;;;;;46.95;32.55;;;;;;;20.90;87.00;97988.41;1717144;83;21683;-79
2021/06/23 03:07:46;;;;;;;48.45;30.55;;;;;;;20.87;86.70;97982.23;1717532;83;20952;-79
2021/06/23 03:10:13;;;;;;;44.35;31.10;;;;;;;20.93;86.42;97981.41;1687678;84;20897;-79
2021/06/23 03:12:39;;;;;;;41.63;29.70;;;;;;;20.93;87.52;97989.09;1717194;83;22028;-79
2021/06/23 03:15:06;;;;;;;43.55;31.27;;;;;;;20.92;86.72;97992.19;1687592;84;20933;-79
2021/06/23 03:17:33;;;;;;;42.88;27.70;;;;;;;20.91;86.27;97987.27;1717115;83;20989;-79
2021/06/23 03:20:07;;;;;;;43.33;29.30;;;;;;;20.88;86.29;97992.10;1696622;83;21036;-79
2021/06/23 03:22:33;;;;;;;41.65;28.25;;;;;;;20.88;86.75;97984.42;1720531;83;21013;-78
2021/06/23 03:24:59;;;;;;;44.73;29.45;;;;;;;20.90;86.82;97994.50;1717156;83;21985;-79
2021/06/23 03:27:25;;;;;;;46.92;29.10;;;;;;;20.86;87.04;98000.49;1720774;83;20920;-79
2021/06/23 03:29:51;;;;;;;44.40;29.90;;;;;;;20.81;87.40;98008.41;1717375;83;20952;-78
2021/06/23 03:32:17;;;;;;;47.70;29.07;;;;;;;20.81;87.12;98008.41;1717239;83;20830;-78
2021/06/23 03:34:43;;;;;;;43.20;29.10;;;;;;;20.85;86.41;98014.84;1717238;83;20960;-79
2021/06/23 03:37:09;;;;;;;44.25;29.10;;;;;;;20.83;86.52;98012.98;1716950;83;21946;-79
2021/06/23 03:39:35;;;;;;;46.02;27.67;;;;;;;20.85;86.72;98009.33;1716891;83;20880;-79
2021/06/23 03:42:01;;;;;;;46.65;29.82;;;;;;;20.82;87.12;98008.62;1687975;85;20996;-78
2021/06/23 03:44:27;;;;;;;52.00;30.00;;;;;;;20.83;86.47;98016.53;1717164;83;20977;-79
2021/06/23 03:46:55;;;;;;;48.33;27.55;;;;;;;20.91;87.77;98011.25;1717227;83;20909;-78
2021/06/23 03:49:22;;;;;;;48.40;30.72;;;;;;;20.92;86.74;98010.09;1717191;83;21457;-79
2021/06/23 03:51:48;;;;;;;42.40;27.42;;;;;;;20.90;86.72;98015.95;1716843;83;20989;-79
2021/06/23 03:54:14;;;;;;;42.98;28.35;;;;;;;20.91;86.74;98014.00;1716957;83;20912;-79
2021/06/23 03:56:40;;;;;;;47.90;28.30;;;;;;;20.85;87.04;98018.97;1717268;83;20936;-78
2021/06/23 03:59:06;;;;;;;49.45;29.55;;;;;;;20.86;87.21;98028.83;1717139;83;20968;-79
2021/06/23 04:01:32;;;;;;;43.70;28.87;;;;;;;20.85;87.19;98032.73;1717308;83;20978;-78
2021/06/23 04:03:58;;;;;;;48.42;28.27;;;;;;;20.86;88.69;98036.29;1716993;83;20854;-79
2021/06/23 04:06:24;;;;;;;40.88;26.37;;;;;;;20.87;87.59;98034.56;1717177;83;21023;-78
2021/06/23 04:08:50;;;;;;;42.38;27.42;;;;;;;20.90;87.37;98040.74;1687777;84;20870;-78
2021/06/23 04:11:15;;;;;;;45.38;28.35;;;;;;;20.93;86.83;98041.41;1717207;83;21055;-79
2021/06/23 04:13:41;;;;;;;46.58;27.77;;;;;;;20.88;87.17;98045.00;1716949;83;21858;-79
2021/06/23 04:16:07;;;;;;;51.18;29.75;;;;;;;20.90;86.78;98047.63;1717066;83;20893;-78
2021/06/23 04:18:33;;;;;;;44.25;28.47;;;;;;;20.85;86.95;98053.39;1720498;83;20993;-78
2021/06/23 04:20:59;;;;;;;51.05;30.55;;;;;;;20.85;86.99;98052.02;1687794;84;20858;-78
2021/06/23 04:23:25;;;;;;;51.77;32.00;;;;;;;20.84;87.35;98053.13;1717471;83;20920;-79
2021/06/23 04:25:51;;;;;;;46.15;28.80;;;;;;;20.85;86.45;98049.26;1717341;83;21294;-79
2021/06/23 04:28:17;;;;;;;45.15;26.55;;;;;;;20.84;86.75;98053.13;1717053;83;21484;-79
2021/06/23 04:30:43;;;;;;;40.12;26.93;;;;;;;20.83;86.86;98053.70;1717256;83;21064;-78
2021/06/23 04:33:09;;;;;;;39.63;27.58;;;;;;;20.81;87.85;98051.08;1717042;83;20853;-79
2021/06/23 04:35:35;;;;;;;47.20;29.63;;;;;;;20.87;87.03;98051.66;1717352;83;20897;-79
2021/06/23 04:38:01;;;;;;;47.25;30.27;;;;;;;20.93;86.99;98051.05;1696514;83;22373;-79
2021/06/23 04:40:27;;;;;;;48.15;30.43;;;;;;;20.94;86.84;98053.27;1745081;81;20918;-79
2021/06/23 04:42:53;;;;;;;51.37;31.02;;;;;;;20.85;87.92;98045.13;1720597;83;20897;-79
2021/06/23 04:45:19;;;;;;;51.33;31.70;;;;;;;20.84;86.91;98048.42;1716944;83;21016;-79
2021/06/23 04:47:45;;;;;;;46.85;30.80;;;;;;;20.90;86.73;98049.00;1717308;83;20932;-79
2021/06/23 04:50:11;;;;;;;46.35;31.93;;;;;;;20.86;87.53;98050.06;1717178;83;21165;-78
2021/06/23 04:52:37;;;;;;;51.45;34.48;;;;;;;20.88;87.16;98045.00;1717115;83;21020;-79
2021/06/23 04:55:05;;;;;;;73.85;61.25;;;;;;;20.95;87.25;98044.64;1717038;83;21328;-79
2021/06/23 04:57:31;;;;;;;63.02;39.08;;;;;;;21.00;86.66;98040.84;1717366;83;21083;-78
2021/06/23 04:59:57;;;;;;;69.58;48.48;;;;;;;20.98;87.15;98043.14;1717070;83;20952;-78
2021/06/23 05:02:23;;;;;;;58.55;42.55;;;;;;;20.97;87.02;98049.22;1717266;83;22022;-78
2021/06/23 05:04:49;;;;;;;55.75;41.18;;;;;;;20.96;87.13;98053.71;1716881;83;21476;-79
2021/06/23 05:07:15;;;;;;;43.90;30.62;;;;;;;20.97;86.79;98051.98;1717208;83;20893;-78
2021/06/23 05:09:41;;;;;;;43.63;30.12;;;;;;;21.01;86.94;98050.13;1716986;83;21045;-78
2021/06/23 05:12:09;;;;;;;48.08;29.07;;;;;;;21.05;87.02;98056.56;1716981;83;37473;-78
2021/06/23 05:14:36;;;;;;;45.05;26.90;;;;;;;21.06;86.91;98067.00;1717035;83;21157;-79
2021/06/23 05:17:02;;;;;;;38.35;24.65;;;;;;;21.17;86.63;98070.88;1717156;83;21032;-78
2021/06/23 05:19:29;;;;;;;49.45;36.42;;;;;;;21.10;87.01;98074.20;1717026;83;20929;-78
2021/06/23 05:21:56;;;;;;;41.15;24.90;;;;;;;21.05;86.76;98073.66;1720795;83;21472;-78
2021/06/23 05:24:22;;;;;;;33.50;23.35;;;;;;;20.94;87.47;98070.59;1717302;83;20985;-79
2021/06/23 05:26:48;;;;;;;35.08;24.27;;;;;;;20.84;87.83;98071.83;1717170;83;21441;-79
2021/06/23 05:29:14;;;;;;;37.88;24.32;;;;;;;20.83;87.52;98083.20;1687431;84;20854;-79
2021/06/23 05:31:40;;;;;;;33.40;21.80;;;;;;;20.84;87.47;98082.05;1717230;83;20904;-79
2021/06/23 05:34:06;;;;;;;37.58;25.12;;;;;;;20.86;87.10;98085.86;1717318;83;20865;-79
2021/06/23 05:36:32;;;;;;;34.88;22.98;;;;;;;20.87;87.10;98088.84;1717227;83;20956;-79
2021/06/23 05:38:59;;;;;;;33.05;22.17;;;;;;;20.88;87.21;98089.06;1716971;83;21228;-79
2021/06/23 05:41:24;;;;;;;32.42;21.52;;;;;;;20.84;87.47;98087.55;1694793;81;20950;-79
2021/06/23 05:43:50;;;;;;;27.93;19.92;;;;;;;20.81;88.10;98090.43;1687787;85;20878;-79
2021/06/23 05:46:16;;;;;;;26.95;18.00;;;;;;;20.87;87.03;98088.84;1687965;85;20921;-79
2021/06/23 05:48:42;;;;;;;29.98;19.52;;;;;;;20.93;86.71;98092.94;1687828;83;20897;-79
2021/06/23 05:51:08;;;;;;;24.77;17.92;;;;;;;20.98;86.92;98094.09;1688065;85;21331;-79
2021/06/23 05:53:34;;;;;;;26.70;17.80;;;;;;;20.99;86.86;98100.63;1687709;84;20870;-79
2021/06/23 05:56:00;;;;;;;31.15;19.52;;;;;;;20.95;87.32;98096.98;1687965;84;20866;-79
2021/06/23 05:58:26;;;;;;;28.32;18.87;;;;;;;20.98;86.90;98099.60;1687785;85;20878;-80
2021/06/23 06:00:52;;;;;;;26.55;19.15;;;;;;;20.98;87.36;98101.78;1688097;83;20965;-79
2021/06/23 06:03:18;;;;;;;24.12;18.42;;;;;;;20.97;88.03;98103.52;1687866;84;21933;-79
2021/06/23 06:05:44;;;;;;;22.20;17.65;;;;;;;21.04;87.70;98107.30;1712546;82;20889;-79
2021/06/23 06:08:10;;;;;;;28.10;17.85;;;;;;;21.08;87.09;98109.57;1712561;82;20981;-79
2021/06/23 06:10:36;;;;;;;27.22;19.25;;;;;;;21.15;87.01;98117.26;1712652;83;20905;-79
2021/06/23 06:13:02;;;;;;;25.17;18.00;;;;;;;21.19;86.82;98118.16;1712596;83;21571;-79
2021/06/23 06:15:28;;;;;;;19.40;15.45;;;;;;;21.20;88.12;98118.98;1712238;82;21624;-80
2021/06/23 06:18:00;;;;;;;17.37;14.28;;;;;;;21.20;87.06;98120.37;1712394;83;20917;-79
2021/06/23 06:20:26;;;;;;;20.32;14.45;;;;;;;21.22;86.83;98131.26;1707941;83;21383;-79
2021/06/23 06:22:52;;;;;;;17.85;14.58;;;;;;;21.23;87.20;98138.95;1712586;83;20850;-79
2021/06/23 06:25:18;;;;;;;20.82;13.98;;;;;;;21.25;86.95;98139.40;1712630;82;20859;-79
2021/06/23 06:27:44;;;;;;;19.32;12.82;;;;;;;21.33;86.63;98142.05;1712604;82;21311;-79
2021/06/23 06:30:11;;;;;;;16.73;12.15;;;;;;;21.35;86.64;98143.88;1712176;83;21012;-79
2021/06/23 06:32:36;;;;;;;18.10;13.55;;;;;;;21.32;86.60;98147.92;1712461;83;21430;-79
2021/06/23 06:35:03;;;;;;;19.40;13.50;;;;;;;21.35;86.34;98138.37;1712369;82;20945;-79
2021/06/23 06:37:29;;;;;;;16.93;12.80;;;;;;;21.43;86.44;98138.02;1684206;83;21075;-79
2021/06/23 06:39:55;;;;;;;21.02;14.33;;;;;;;21.50;86.28;98140.19;1711837;83;21304;-79
2021/06/23 06:42:21;;;;;;;17.07;13.13;;;;;;;21.49;86.22;98144.09;1717230;83;20976;-79
2021/06/23 06:44:47;;;;;;;13.95;11.78;;;;;;;21.39;86.12;98151.70;1687568;85;20926;-79
2021/06/23 06:47:13;;;;;;;14.63;12.05;;;;;;;21.44;85.70;98150.64;1717237;83;20881;-79
2021/06/23 06:49:39;;;;;;;18.70;13.32;;;;;;;21.35;86.19;98154.91;1717236;83;20870;-79
2021/06/23 06:52:06;;;;;;;15.18;12.23;;;;;;;21.37;86.27;98155.96;1717316;83;21311;-79
2021/06/23 06:54:31;;;;;;;14.23;12.07;;;;;;;21.37;86.10;98154.58;1696615;83;20985;-79
2021/06/23 06:56:57;;;;;;;12.10;10.10;;;;;;;21.37;85.62;98160.89;1720902;83;20967;-79
2021/06/23 06:59:23;;;;;;;13.50;9.70;;;;;;;21.35;85.12;98168.69;1717083;83;20983;-79
2021/06/23 07:01:49;;;;;;;11.22;10.05;;;;;;;21.30;85.39;98166.77;1675824;85;20890;-78
2021/06/23 07:04:15;;;;;;;14.90;10.50;;;;;;;21.25;85.52;98171.09;1717137;83;21868;-78
2021/06/23 07:06:44;;;;;;;15.00;12.23;;;;;;;21.28;85.47;98178.14;1717154;83;21020;-78
2021/06/23 07:09:10;;;;;;;14.13;11.03;;;;;;;21.25;85.98;98177.97;1717383;81;21000;-78
2021/06/23 07:11:36;;;;;;;18.10;11.03;;;;;;;21.12;86.04;98181.33;1717177;83;21100;-78
2021/06/23 07:14:02;;;;;;;14.93;10.48;;;;;;;21.17;86.50;98174.77;1696582;83;20885;-78
2021/06/23 07:16:28;;;;;;;14.53;10.55;;;;;;;21.29;86.01;98178.36;1696351;83;21127;-78
2021/06/23 07:18:54;;;;;;;16.40;12.00;;;;;;;21.37;85.85;98183.52;1717118;83;21503;-78
2021/06/23 07:21:20;;;;;;;17.35;11.57;;;;;;;21.45;85.71;98179.84;1717331;83;20967;-78
2021/06/23 07:23:47;;;;;;;18.32;11.60;;;;;;;21.48;85.71;98187.40;1717094;83;20909;-78
2021/06/23 07:26:13;;;;;;;14.47;10.85;;;;;;;21.45;85.48;98188.11;1717237;83;21049;-78
2021/06/23 07:28:46;;;;;;;16.67;12.50;;;;;;;21.47;85.83;98180.86;1717288;83;21158;-78
2021/06/23 07:31:08;;;;;;;20.20;11.63;;;;;;;21.48;85.56;98183.84;1718293;82;21262;-79
2021/06/23 07:33:36;;;;;;;16.75;12.55;;;;;;;21.46;85.68;98182.81;1717093;83;21642;-78
2021/06/23 07:38:47;;;;;;;17.82;13.10;;;;;;;21.63;84.99;98183.12;1687519;84;20930;-78
2021/06/23 07:41:13;;;;;;;18.35;14.30;;;;;;;21.65;85.11;98183.00;1717326;83;21788;-78
2021/06/23 07:43:39;;;;;;;17.62;12.95;;;;;;;21.71;85.52;98175.30;1717071;83;21539;-78
2021/06/23 07:46:06;;;;;;;19.73;12.98;;;;;;;21.76;85.22;98185.27;1717171;83;20904;-78
2021/06/23 07:48:36;;;;;;;20.70;14.80;;;;;;;21.61;85.35;98179.89;1687444;84;21132;-78
2021/06/23 07:53:35;;;;;;;19.95;16.00;;;;;;;21.42;85.72;98189.36;1717217;83;21732;-78
2021/06/23 07:56:08;;;;;;;17.73;14.15;;;;;;;21.45;85.04;98195.00;1744412;82;21476;-78
2021/06/23 08:09:34;;;;;;;17.15;12.80;;;;;;;21.77;84.32;98196.52;1687747;85;21017;-79
2021/06/23 08:14:40;;;;;;;20.50;12.88;;;;;;;21.89;83.59;98196.50;1698925;83;20976;-79
2021/06/23 08:17:06;;;;;;;17.62;12.28;;;;;;;22.00;83.06;98197.61;1720332;83;21500;-79
2021/06/23 08:19:32;;;;;;;17.77;12.85;;;;;;;22.16;83.05;98192.17;1717033;83;21780;-79
2021/06/23 08:21:58;;;;;;;18.92;13.50;;;;;;;22.28;81.89;98196.25;1717065;83;20948;-79
2021/06/23 08:24:24;;;;;;;20.68;13.53;;;;;;;22.58;81.89;98190.35;1717091;83;20920;-79
2021/06/23 08:26:50;;;;;;;19.37;14.85;;;;;;;22.87;81.04;98187.77;1696824;83;20881;-79
2021/06/23 08:29:16;;;;;;;18.75;13.53;;;;;;;22.93;80.76;98184.38;1717096;83;21413;-79
2021/06/23 08:31:42;;;;;;;16.35;12.23;;;;;;;22.92;80.06;98195.80;1717266;83;21860;-79
2021/06/23 08:34:08;;;;;;;16.95;12.88;;;;;;;22.98;79.83;98195.73;1717065;83;20838;-79
2021/06/23 08:36:34;;;;;;;18.77;13.03;;;;;;;22.97;79.14;98199.66;1716846;83;21103;-79
2021/06/23 08:39:00;;;;;;;16.60;12.98;;;;;;;23.12;79.32;98195.28;1717134;83;20992;-79
2021/06/23 08:41:26;;;;;;;17.40;12.15;;;;;;;23.00;78.20;98197.00;1716514;83;20861;-79
2021/06/23 08:43:55;;;;;;;16.87;11.95;;;;;;;23.17;78.34;98196.41;1715733;83;21130;-79
2021/06/23 08:46:21;;;;;;;19.17;13.05;;;;;;;23.34;77.78;98196.83;1715776;82;21473;-79
2021/06/23 08:48:47;;;;;;;21.07;14.55;;;;;;;23.53;77.52;98192.50;1715796;83;21506;-79
2021/06/23 08:51:13;;;;;;;18.90;14.28;;;;;;;23.71;76.87;98196.49;1715952;83;20982;-79
2021/06/23 08:53:39;;;;;;;23.20;14.80;;;;;;;23.84;76.50;98199.36;1715819;83;20849;-79
2021/06/23 08:56:07;;;;;;;18.80;13.38;;;;;;;23.88;76.15;98202.98;1715564;83;21219;-79
2021/06/23 08:58:34;;;;;;;19.57;13.30;;;;;;;23.82;75.14;98200.87;1715722;83;21592;-79
2021/06/23 09:01:00;;;;;;;17.42;13.68;;;;;;;23.90;75.53;98199.27;1715627;83;21075;-79
2021/06/23 09:03:26;;;;;;;20.68;12.78;;;;;;;23.98;75.27;98201.61;1689183;83;21050;-79
2021/06/23 09:05:56;;;;;;;17.12;14.10;;;;;;;23.90;74.80;98199.27;1715665;83;20955;-80
2021/06/23 09:08:32;;;;;;;19.67;13.50;;;;;;;23.92;74.89;98202.47;1716072;83;21123;-79
2021/06/23 09:10:59;;;;;;;18.30;13.95;;;;;;;24.06;74.54;98206.71;1715582;82;21360;-79
2021/06/23 09:13:25;;;;;;;17.40;12.93;;;;;;;23.90;74.53;98206.77;1715783;83;21036;-79
2021/06/23 09:16:00;;;;;;;23.73;14.20;;;;;;;23.86;75.52;98208.67;1715860;83;21362;-79
2021/06/23 09:18:35;;;;;;;15.80;13.72;;;;;;;24.07;74.66;98206.34;1715800;83;20996;-78
2021/06/23 09:21:18;;;;;;;17.92;13.13;;;;;;;24.11;74.74;98203.66;1715750;82;21290;-79
2021/06/23 09:23:50;;;;;;;17.02;14.45;;;;;;;24.23;74.19;98199.94;1689131;83;21136;-78
2021/06/23 09:26:29;;;;;;;19.62;13.70;;;;;;;25.00;72.79;98203.36;1689570;83;21389;-80
2021/06/23 09:29:16;;;;;;;17.70;13.95;;;;;;;25.59;71.81;98203.91;1691293;83;20956;-79
2021/06/23 09:32:05;;;;;;;16.42;14.15;;;;;;;25.57;70.67;98211.23;1715140;82;20993;-79
2021/06/23 09:34:39;;;;;;;19.40;14.38;;;;;;;25.20;70.51;98211.63;1691421;83;21829;-79
2021/06/23 09:37:27;;;;;;;18.32;13.60;;;;;;;24.79;70.85;98212.71;1715898;83;21473;-78
2021/06/23 09:40:21;;;;;;;19.40;16.10;;;;;;;24.57;71.30;98212.89;1713684;83;21008;-79
2021/06/23 09:42:59;;;;;;;18.80;15.35;;;;;;;24.56;71.37;98218.80;1693145;81;20922;-78
2021/06/23 09:45:23;;;;;;;20.37;13.60;;;;;;;24.54;72.00;98220.56;1687286;84;20969;-79
2021/06/23 09:47:49;;;;;;;19.65;14.80;;;;;;;24.42;72.24;98217.35;1688022;85;21962;-79
2021/06/23 09:50:26;;;;;;;22.65;16.10;;;;;;;24.46;72.25;98222.98;1669807;85;20929;-79
2021/06/23 09:52:56;;;;;;;22.22;15.68;;;;;;;24.53;72.47;98225.09;1687888;83;21037;-78
2021/06/23 09:55:47;;;;;;;19.57;17.10;;;;;;;24.39;72.47;98226.41;1687004;84;21029;-79
2021/06/23 09:58:20;;;;;;;24.92;17.62;;;;;;;24.25;72.96;98219.74;1712714;83;20989;-79
2021/06/23 10:01:11;;;;;;;23.73;19.07;;;;;;;24.25;72.82;98222.52;1712279;82;21182;-79
2021/06/23 10:04:04;;;;;;;21.55;18.30;;;;;;;24.37;72.59;98218.25;1712744;81;21299;-79
2021/06/23 10:06:32;;;;;;;23.35;18.27;;;;;;;24.66;72.41;98217.61;1713182;82;21037;-79
2021/06/23 10:09:25;;;;;;;21.70;17.50;;;;;;;25.04;71.58;98210.40;1712417;82;20946;-79
2021/06/23 10:12:05;;;;;;;22.60;18.82;;;;;;;25.40;70.65;98202.05;1712495;83;20993;-79
2021/06/23 10:14:34;;;;;;;21.68;18.65;;;;;;;25.60;70.31;98208.28;1712313;82;21107;-79
2021/06/23 10:17:02;;;;;;;24.92;18.95;;;;;;;25.51;69.54;98206.37;1712547;82;20989;-79
2021/06/23 10:19:28;;;;;;;25.02;19.27;;;;;;;25.29;69.28;98211.61;1712500;82;20954;-79
2021/06/23 10:21:55;;;;;;;22.37;18.65;;;;;;;25.33;70.02;98217.20;1684335;83;21048;-79
2021/06/23 10:24:21;;;;;;;27.25;20.08;;;;;;;25.55;69.69;98209.42;1712531;82;21001;-79
2021/06/23 10:26:52;;;;;;;24.35;19.98;;;;;;;25.45;69.22;98213.40;1712646;82;21781;-79
2021/06/23 10:29:30;;;;;;;23.85;19.52;;;;;;;25.21;70.09;98218.21;1712530;82;20894;-79
2021/06/23 10:31:56;;;;;;;21.57;17.77;;;;;;;24.87;70.40;98221.95;1711981;83;21493;-79
2021/06/23 10:34:23;;;;;;;22.98;18.82;;;;;;;24.84;70.89;98220.70;1712664;83;21374;-79
2021/06/23 10:36:49;;;;;;;23.57;20.10;;;;;;;24.75;70.87;98220.14;1732381;82;21064;-79
2021/06/23 10:39:15;;;;;;;26.33;20.45;;;;;;;24.78;71.22;98218.59;1732455;82;20969;-79
2021/06/23 10:41:45;;;;;;;26.45;19.57;;;;;;;25.01;70.69;98223.56;1715586;82;20933;-79
2021/06/23 10:44:35;;;;;;;26.65;21.42;;;;;;;25.12;70.25;98221.80;1725769;83;20976;-80
2021/06/23 10:47:06;;;;;;;28.00;22.30;;;;;;;25.01;69.84;98222.17;1726008;82;20992;-78
2021/06/23 10:49:45;;;;;;;25.82;21.97;;;;;;;25.21;69.68;98223.75;1725845;81;21044;-78
2021/06/23 10:52:26;;;;;;;25.02;20.27;;;;;;;25.25;69.65;98221.83;1700997;82;21872;-79
2021/06/23 10:54:57;;;;;;;23.25;20.35;;;;;;;25.09;70.04;98213.43;1722864;83;21291;-79
2021/06/23 10:57:33;;;;;;;29.02;19.62;;;;;;;25.12;70.39;98214.86;1700966;82;20993;-79
2021/06/23 11:00:00;;;;;;;23.98;19.85;;;;;;;25.17;70.55;98217.92;1722894;83;21024;-79
2021/06/23 11:02:35;;;;;;;27.90;20.83;;;;;;;25.20;70.44;98217.17;1723362;83;21452;-79
2021/06/23 11:05:05;;;;;;;30.23;22.13;;;;;;;25.02;70.22;98212.69;1722944;82;21138;-79
2021/06/23 11:07:47;;;;;;;28.38;22.32;;;;;;;24.96;70.77;98210.83;1723149;83;20985;-79
2021/06/23 11:10:17;;;;;;;30.62;23.98;;;;;;;24.79;71.43;98211.33;1700727;84;21407;-79
2021/06/23 11:12:51;;;;;;;30.90;21.65;;;;;;;24.77;71.29;98210.87;1701100;84;20981;-79
2021/06/23 11:15:36;;;;;;;35.20;23.07;;;;;;;24.25;72.97;98214.20;1700902;84;20957;-79
2021/06/23 11:18:27;;;;;;;28.83;21.95;;;;;;;24.12;73.60;98212.98;1723079;83;21913;-78
2021/06/23 11:21:08;;;;;;;31.50;21.50;;;;;;;24.04;74.07;98210.44;1723516;82;21416;-78
2021/06/23 11:23:59;;;;;;;34.53;23.62;;;;;;;23.96;74.17;98212.83;1701014;83;20973;-78
2021/06/23 11:26:38;;;;;;;31.60;21.23;;;;;;;23.93;74.64;98215.75;1730656;82;20965;-78
2021/06/23 11:29:17;;;;;;;30.17;21.68;;;;;;;24.10;73.88;98217.29;1701403;82;21441;-79
2021/06/23 11:31:49;;;;;;;31.93;22.75;;;;;;;24.28;73.94;98214.88;1700728;83;21726;-79
2021/06/23 11:34:43;;;;;;;33.60;23.85;;;;;;;24.41;73.34;98217.72;1700970;83;20958;-79
2021/06/23 11:37:13;;;;;;;34.48;22.65;;;;;;;24.56;73.15;98214.65;1700945;84;21051;-79
2021/06/23 11:39:39;;;;;;;29.82;22.55;;;;;;;24.64;72.89;98217.77;1723017;83;21473;-79
2021/06/23 11:42:07;;;;;;;41.53;23.95;;;;;;;24.62;72.40;98229.81;1722297;81;20957;-79
2021/06/23 11:44:35;;;;;;;32.80;22.73;;;;;;;24.60;72.46;98221.84;1697424;83;21140;-79